Terminal Aerodrome Forecast
Issued by NWS

Home | Current Version | Previous Version | Text Only | Print | Product List | Glossary On
Versions: 1 2 3 4 5 6 7 8 9 10 11 12 13 14 15
000
FTUS44 KLZK 020500
TAFLIT
TAF
KLIT 020520Z 0206/0306 16005KT P6SM SKC
     FM021000 17007KT P6SM SCT015
      TEMPO 0210/0214 5SM BR BKN015
     FM021400 18009KT P6SM BKN025 OVC050
     FM021800 19008G16KT P6SM VCTS BKN050CB
     FM030300 20005KT 5SM TSRA BR OVC030CB=

USA.gov is the U.S. government's official web portal to all federal, state and local government web resources and services.